sensor_id;sensor_type;location;lat;lon;timestamp;pressure;altitude;pressure_sealevel;temperature;humidity
36138;BME280;67787;50.074;21.904;2023-04-19T00:02:22;99111.41;;;10.16;60.77
36138;BME280;67787;50.074;21.904;2023-04-19T00:04:52;99104.24;;;10.15;60.83
36138;BME280;67787;50.074;21.904;2023-04-19T00:07:20;99102.89;;;10.14;60.84
36138;BME280;67787;50.074;21.904;2023-04-19T00:09:48;99101.23;;;10.12;60.87
36138;BME280;67787;50.074;21.904;2023-04-19T00:12:16;99097.27;;;10.13;60.94
36138;BME280;67787;50.074;21.904;2023-04-19T00:14:43;99092.89;;;10.12;61.22
36138;BME280;67787;50.074;21.904;2023-04-19T00:17:11;99091.34;;;10.11;60.97
36138;BME280;67787;50.074;21.904;2023-04-19T00:19:40;99094.79;;;10.10;61.22
36138;BME280;67787;50.074;21.904;2023-04-19T00:22:07;99091.23;;;10.08;61.18
36138;BME280;67787;50.074;21.904;2023-04-19T00:24:35;99088.08;;;10.07;61.54
36138;BME280;67787;50.074;21.904;2023-04-19T00:27:03;99090.13;;;10.06;61.52
36138;BME280;67787;50.074;21.904;2023-04-19T00:29:31;99086.88;;;10.04;61.46
36138;BME280;67787;50.074;21.904;2023-04-19T00:31:59;99088.72;;;10.03;61.62
36138;BME280;67787;50.074;21.904;2023-04-19T00:34:27;99088.12;;;10.02;61.88
36138;BME280;67787;50.074;21.904;2023-04-19T00:36:55;99087.13;;;10.01;61.81
36138;BME280;67787;50.074;21.904;2023-04-19T00:39:23;99083.14;;;9.99;61.64
36138;BME280;67787;50.074;21.904;2023-04-19T00:41:50;99081.56;;;9.99;61.77
36138;BME280;67787;50.074;21.904;2023-04-19T00:44:19;99082.70;;;9.98;61.78
36138;BME280;67787;50.074;21.904;2023-04-19T00:46:47;99077.46;;;9.97;61.86
36138;BME280;67787;50.074;21.904;2023-04-19T00:49:19;99074.45;;;9.97;61.81
36138;BME280;67787;50.074;21.904;2023-04-19T00:51:49;99068.77;;;9.97;61.87
36138;BME280;67787;50.074;21.904;2023-04-19T00:54:18;99066.23;;;9.98;62.00
36138;BME280;67787;50.074;21.904;2023-04-19T00:56:46;99066.66;;;9.97;62.06
36138;BME280;67787;50.074;21.904;2023-04-19T00:59:15;99061.09;;;9.96;61.98
36138;BME280;67787;50.074;21.904;2023-04-19T01:01:42;99063.29;;;9.95;62.11
36138;BME280;67787;50.074;21.904;2023-04-19T01:04:11;99062.90;;;9.93;62.17
36138;BME280;67787;50.074;21.904;2023-04-19T01:06:40;99062.31;;;9.91;62.17
36138;BME280;67787;50.074;21.904;2023-04-19T01:09:08;99060.83;;;9.89;62.23
36138;BME280;67787;50.074;21.904;2023-04-19T01:11:36;99059.66;;;9.88;62.24
36138;BME280;67787;50.074;21.904;2023-04-19T01:14:03;99056.95;;;9.87;62.22
36138;BME280;67787;50.074;21.904;2023-04-19T01:16:31;99053.30;;;9.85;62.33
36138;BME280;67787;50.074;21.904;2023-04-19T01:19:00;99052.73;;;9.83;62.40
36138;BME280;67787;50.074;21.904;2023-04-19T01:21:28;99051.84;;;9.81;62.59
36138;BME280;67787;50.074;21.904;2023-04-19T01:23:57;99048.61;;;9.79;62.60
36138;BME280;67787;50.074;21.904;2023-04-19T01:26:25;99046.11;;;9.77;62.62
36138;BME280;67787;50.074;21.904;2023-04-19T01:28:52;99043.23;;;9.75;62.87
36138;BME280;67787;50.074;21.904;2023-04-19T01:31:20;99043.35;;;9.73;62.74
36138;BME280;67787;50.074;21.904;2023-04-19T01:33:48;99038.04;;;9.73;62.83
36138;BME280;67787;50.074;21.904;2023-04-19T01:36:16;99039.45;;;9.73;62.83
36138;BME280;67787;50.074;21.904;2023-04-19T01:38:44;99034.02;;;9.72;63.00
36138;BME280;67787;50.074;21.904;2023-04-19T01:41:14;99032.81;;;9.72;63.28
36138;BME280;67787;50.074;21.904;2023-04-19T01:43:42;99032.39;;;9.70;63.27
36138;BME280;67787;50.074;21.904;2023-04-19T01:46:10;99024.02;;;9.68;63.07
36138;BME280;67787;50.074;21.904;2023-04-19T01:48:38;99018.56;;;9.68;63.10
36138;BME280;67787;50.074;21.904;2023-04-19T01:51:06;99015.98;;;9.66;63.16
36138;BME280;67787;50.074;21.904;2023-04-19T01:53:34;99015.73;;;9.65;63.84
36138;BME280;67787;50.074;21.904;2023-04-19T01:56:01;99014.08;;;9.63;63.40
36138;BME280;67787;50.074;21.904;2023-04-19T01:58:29;99010.29;;;9.62;63.56
36138;BME280;67787;50.074;21.904;2023-04-19T02:00:57;99010.16;;;9.61;63.45
36138;BME280;67787;50.074;21.904;2023-04-19T02:03:43;99008.80;;;9.60;63.56
36138;BME280;67787;50.074;21.904;2023-04-19T02:06:12;99006.64;;;9.58;63.56
36138;BME280;67787;50.074;21.904;2023-04-19T02:08:41;99010.76;;;9.58;63.75
36138;BME280;67787;50.074;21.904;2023-04-19T02:11:10;99009.10;;;9.56;63.49
36138;BME280;67787;50.074;21.904;2023-04-19T02:13:42;99008.44;;;9.56;63.77
36138;BME280;67787;50.074;21.904;2023-04-19T02:16:28;99010.81;;;9.54;63.74
36138;BME280;67787;50.074;21.904;2023-04-19T02:18:56;99006.69;;;9.52;63.79
36138;BME280;67787;50.074;21.904;2023-04-19T02:21:25;99004.64;;;9.51;63.97
36138;BME280;67787;50.074;21.904;2023-04-19T02:23:54;99001.05;;;9.49;63.97
36138;BME280;67787;50.074;21.904;2023-04-19T02:26:21;99001.27;;;9.49;63.87
36138;BME280;67787;50.074;21.904;2023-04-19T02:28:51;98999.94;;;9.48;63.96
36138;BME280;67787;50.074;21.904;2023-04-19T02:31:19;98997.19;;;9.46;64.09
36138;BME280;67787;50.074;21.904;2023-04-19T02:33:47;98996.13;;;9.47;64.25
36138;BME280;67787;50.074;21.904;2023-04-19T02:36:16;98995.85;;;9.45;64.14
36138;BME280;67787;50.074;21.904;2023-04-19T02:38:44;98994.50;;;9.44;64.12
36138;BME280;67787;50.074;21.904;2023-04-19T02:41:12;98991.67;;;9.44;64.56
36138;BME280;67787;50.074;21.904;2023-04-19T02:43:40;98994.89;;;9.44;64.28
36138;BME280;67787;50.074;21.904;2023-04-19T02:46:08;98990.83;;;9.44;64.23
36138;BME280;67787;50.074;21.904;2023-04-19T02:48:37;98991.95;;;9.43;64.21
36138;BME280;67787;50.074;21.904;2023-04-19T02:51:05;98989.17;;;9.42;64.45
36138;BME280;67787;50.074;21.904;2023-04-19T02:53:33;98986.66;;;9.40;64.40
36138;BME280;67787;50.074;21.904;2023-04-19T02:56:01;98986.36;;;9.39;64.32
36138;BME280;67787;50.074;21.904;2023-04-19T02:58:30;98982.35;;;9.38;64.42
36138;BME280;67787;50.074;21.904;2023-04-19T03:00:58;98983.42;;;9.38;64.41
36138;BME280;67787;50.074;21.904;2023-04-19T03:03:26;98980.06;;;9.38;64.64
36138;BME280;67787;50.074;21.904;2023-04-19T03:05:54;98975.21;;;9.36;64.40
36138;BME280;67787;50.074;21.904;2023-04-19T03:08:22;98972.33;;;9.37;64.55
36138;BME280;67787;50.074;21.904;2023-04-19T03:10:50;98965.42;;;9.37;64.69
36138;BME280;67787;50.074;21.904;2023-04-19T03:13:18;98963.98;;;9.38;64.79
36138;BME280;67787;50.074;21.904;2023-04-19T03:15:46;98963.10;;;9.37;64.77
36138;BME280;67787;50.074;21.904;2023-04-19T03:18:15;98964.83;;;9.38;64.75
36138;BME280;67787;50.074;21.904;2023-04-19T03:20:44;98964.52;;;9.40;64.77
36138;BME280;67787;50.074;21.904;2023-04-19T03:23:12;98964.40;;;9.42;64.58
36138;BME280;67787;50.074;21.904;2023-04-19T03:25:40;98965.11;;;9.42;64.99
36138;BME280;67787;50.074;21.904;2023-04-19T03:28:08;98963.70;;;9.42;64.84
36138;BME280;67787;50.074;21.904;2023-04-19T03:30:36;98962.23;;;9.43;64.83
36138;BME280;67787;50.074;21.904;2023-04-19T03:33:04;98961.91;;;9.42;65.03
36138;BME280;67787;50.074;21.904;2023-04-19T03:35:32;98957.58;;;9.44;64.91
36138;BME280;67787;50.074;21.904;2023-04-19T03:38:00;98956.83;;;9.44;65.34
36138;BME280;67787;50.074;21.904;2023-04-19T03:40:29;98958.05;;;9.44;64.98
36138;BME280;67787;50.074;21.904;2023-04-19T03:42:57;98956.20;;;9.45;65.07
36138;BME280;67787;50.074;21.904;2023-04-19T03:45:25;98953.59;;;9.45;64.92
36138;BME280;67787;50.074;21.904;2023-04-19T03:47:53;98952.31;;;9.45;64.95
36138;BME280;67787;50.074;21.904;2023-04-19T03:50:21;98949.92;;;9.46;64.96
36138;BME280;67787;50.074;21.904;2023-04-19T03:52:49;98945.03;;;9.46;65.12
36138;BME280;67787;50.074;21.904;2023-04-19T03:55:17;98945.66;;;9.44;65.04
36138;BME280;67787;50.074;21.904;2023-04-19T03:57:45;98944.14;;;9.43;65.05
36138;BME280;67787;50.074;21.904;2023-04-19T04:00:13;98945.39;;;9.43;65.39
36138;BME280;67787;50.074;21.904;2023-04-19T04:02:41;98946.81;;;9.40;65.31
36138;BME280;67787;50.074;21.904;2023-04-19T04:05:09;98946.24;;;9.38;65.22
36138;BME280;67787;50.074;21.904;2023-04-19T04:07:37;98948.77;;;9.37;65.25
36138;BME280;67787;50.074;21.904;2023-04-19T04:10:06;98949.83;;;9.37;65.36
36138;BME280;67787;50.074;21.904;2023-04-19T04:12:34;98947.59;;;9.37;65.56
36138;BME280;67787;50.074;21.904;2023-04-19T04:15:01;98944.69;;;9.37;65.47
36138;BME280;67787;50.074;21.904;2023-04-19T04:17:30;98946.96;;;9.38;65.60
36138;BME280;67787;50.074;21.904;2023-04-19T04:19:58;98946.58;;;9.38;65.51
36138;BME280;67787;50.074;21.904;2023-04-19T04:22:26;98940.61;;;9.41;65.68
36138;BME280;67787;50.074;21.904;2023-04-19T04:24:54;98941.67;;;9.41;65.78
36138;BME280;67787;50.074;21.904;2023-04-19T04:27:24;98943.42;;;9.38;65.97
36138;BME280;67787;50.074;21.904;2023-04-19T04:29:52;98943.09;;;9.35;65.75
36138;BME280;67787;50.074;21.904;2023-04-19T04:32:21;98943.74;;;9.34;65.80
36138;BME280;67787;50.074;21.904;2023-04-19T04:34:50;98943.76;;;9.33;65.66
36138;BME280;67787;50.074;21.904;2023-04-19T04:37:18;98948.65;;;9.32;65.83
36138;BME280;67787;50.074;21.904;2023-04-19T04:39:45;98948.83;;;9.29;65.96
36138;BME280;67787;50.074;21.904;2023-04-19T04:42:13;98952.55;;;9.27;66.09
36138;BME280;67787;50.074;21.904;2023-04-19T04:44:41;98953.59;;;9.24;66.22
36138;BME280;67787;50.074;21.904;2023-04-19T04:47:12;98957.78;;;9.22;66.21
36138;BME280;67787;50.074;21.904;2023-04-19T04:49:40;98955.89;;;9.22;66.10
36138;BME280;67787;50.074;21.904;2023-04-19T04:52:08;98954.35;;;9.20;66.16
36138;BME280;67787;50.074;21.904;2023-04-19T04:54:36;98950.77;;;9.21;66.07
36138;BME280;67787;50.074;21.904;2023-04-19T04:57:03;98953.44;;;9.21;66.07
36138;BME280;67787;50.074;21.904;2023-04-19T04:59:32;98950.38;;;9.19;66.39
36138;BME280;67787;50.074;21.904;2023-04-19T05:02:00;98951.82;;;9.19;66.24
36138;BME280;67787;50.074;21.904;2023-04-19T05:04:28;98947.23;;;9.16;66.24
36138;BME280;67787;50.074;21.904;2023-04-19T05:06:55;98950.94;;;9.16;66.25
36138;BME280;67787;50.074;21.904;2023-04-19T05:09:23;98952.54;;;9.14;66.51
36138;BME280;67787;50.074;21.904;2023-04-19T05:11:51;98947.22;;;9.14;66.44
36138;BME280;67787;50.074;21.904;2023-04-19T05:14:20;98946.38;;;9.13;66.49
36138;BME280;67787;50.074;21.904;2023-04-19T05:16:48;98947.85;;;9.12;66.66
36138;BME280;67787;50.074;21.904;2023-04-19T05:19:16;98945.43;;;9.12;66.59
36138;BME280;67787;50.074;21.904;2023-04-19T05:21:44;98945.98;;;9.14;66.66
36138;BME280;67787;50.074;21.904;2023-04-19T05:24:11;98942.03;;;9.15;66.76
36138;BME280;67787;50.074;21.904;2023-04-19T05:26:39;98943.08;;;9.15;66.91
36138;BME280;67787;50.074;21.904;2023-04-19T05:29:08;98945.42;;;9.17;66.83
36138;BME280;67787;50.074;21.904;2023-04-19T05:31:36;98947.46;;;9.18;66.73
36138;BME280;67787;50.074;21.904;2023-04-19T05:34:04;98948.23;;;9.19;66.85
36138;BME280;67787;50.074;21.904;2023-04-19T05:36:32;98945.84;;;9.21;66.78
36138;BME280;67787;50.074;21.904;2023-04-19T05:38:59;98945.83;;;9.21;66.89
36138;BME280;67787;50.074;21.904;2023-04-19T05:41:28;98939.94;;;9.22;66.83
36138;BME280;67787;50.074;21.904;2023-04-19T05:43:56;98939.81;;;9.24;66.88
36138;BME280;67787;50.074;21.904;2023-04-19T05:46:24;98937.50;;;9.24;66.84
36138;BME280;67787;50.074;21.904;2023-04-19T05:48:52;98935.86;;;9.24;66.89
36138;BME280;67787;50.074;21.904;2023-04-19T05:51:20;98939.20;;;9.25;67.02
36138;BME280;67787;50.074;21.904;2023-04-19T05:53:48;98935.83;;;9.25;67.00
36138;BME280;67787;50.074;21.904;2023-04-19T05:56:15;98940.22;;;9.26;67.06
36138;BME280;67787;50.074;21.904;2023-04-19T05:58:44;98937.45;;;9.25;67.37
36138;BME280;67787;50.074;21.904;2023-04-19T06:01:12;98937.54;;;9.23;67.11
36138;BME280;67787;50.074;21.904;2023-04-19T06:03:40;98943.58;;;9.23;66.97
36138;BME280;67787;50.074;21.904;2023-04-19T06:06:09;98941.27;;;9.23;67.23
36138;BME280;67787;50.074;21.904;2023-04-19T06:08:36;98943.95;;;9.23;67.03
36138;BME280;67787;50.074;21.904;2023-04-19T06:11:04;98949.27;;;9.20;67.16
36138;BME280;67787;50.074;21.904;2023-04-19T06:13:51;98949.27;;;9.15;67.17
36138;BME280;67787;50.074;21.904;2023-04-19T06:16:19;98949.76;;;9.13;67.47
36138;BME280;67787;50.074;21.904;2023-04-19T06:18:47;98952.99;;;9.09;67.34
36138;BME280;67787;50.074;21.904;2023-04-19T06:21:15;98953.41;;;9.08;67.41
36138;BME280;67787;50.074;21.904;2023-04-19T06:23:43;98952.93;;;9.08;67.67
36138;BME280;67787;50.074;21.904;2023-04-19T06:26:11;98953.48;;;9.07;67.31
36138;BME280;67787;50.074;21.904;2023-04-19T06:28:39;98951.98;;;9.09;67.46
36138;BME280;67787;50.074;21.904;2023-04-19T06:31:07;98951.70;;;9.10;67.51
36138;BME280;67787;50.074;21.904;2023-04-19T06:33:35;98951.04;;;9.12;67.58
36138;BME280;67787;50.074;21.904;2023-04-19T06:36:03;98951.73;;;9.13;67.46
36138;BME280;67787;50.074;21.904;2023-04-19T06:38:31;98953.24;;;9.14;67.69
36138;BME280;67787;50.074;21.904;2023-04-19T06:41:00;98953.68;;;9.13;67.56
36138;BME280;67787;50.074;21.904;2023-04-19T06:43:28;98954.60;;;9.15;67.69
36138;BME280;67787;50.074;21.904;2023-04-19T06:45:59;98957.41;;;9.15;67.67
36138;BME280;67787;50.074;21.904;2023-04-19T06:48:27;98958.56;;;9.14;67.72
36138;BME280;67787;50.074;21.904;2023-04-19T06:50:56;98959.21;;;9.12;67.56
36138;BME280;67787;50.074;21.904;2023-04-19T06:53:24;98960.44;;;9.12;67.72
36138;BME280;67787;50.074;21.904;2023-04-19T06:55:58;98960.88;;;9.14;67.92
36138;BME280;67787;50.074;21.904;2023-04-19T06:58:29;98962.52;;;9.13;67.85
36138;BME280;67787;50.074;21.904;2023-04-19T07:01:03;98960.92;;;9.13;67.90
36138;BME280;67787;50.074;21.904;2023-04-19T07:03:31;98964.13;;;9.12;67.79
36138;BME280;67787;50.074;21.904;2023-04-19T07:06:00;98964.48;;;9.13;67.97
36138;BME280;67787;50.074;21.904;2023-04-19T07:08:28;98961.70;;;9.14;67.95
36138;BME280;67787;50.074;21.904;2023-04-19T07:11:15;98963.69;;;9.18;68.08
36138;BME280;67787;50.074;21.904;2023-04-19T07:13:43;98963.38;;;9.21;68.14
36138;BME280;67787;50.074;21.904;2023-04-19T07:16:11;98959.94;;;9.24;68.07
36138;BME280;67787;50.074;21.904;2023-04-19T07:18:41;98960.86;;;9.27;68.11
36138;BME280;67787;50.074;21.904;2023-04-19T07:21:10;98962.98;;;9.29;68.18
36138;BME280;67787;50.074;21.904;2023-04-19T07:23:38;98960.33;;;9.32;68.15
36138;BME280;67787;50.074;21.904;2023-04-19T07:26:07;98962.60;;;9.32;68.17
36138;BME280;67787;50.074;21.904;2023-04-19T07:28:35;98957.73;;;9.33;68.24
36138;BME280;67787;50.074;21.904;2023-04-19T07:31:03;98960.97;;;9.35;68.34
36138;BME280;67787;50.074;21.904;2023-04-19T07:33:31;98960.60;;;9.33;68.47
36138;BME280;67787;50.074;21.904;2023-04-19T07:35:59;98964.11;;;9.31;68.49
36138;BME280;67787;50.074;21.904;2023-04-19T07:38:27;98964.80;;;9.31;68.67
36138;BME280;67787;50.074;21.904;2023-04-19T07:40:55;98963.02;;;9.31;68.58
36138;BME280;67787;50.074;21.904;2023-04-19T07:43:23;98963.02;;;9.34;68.45
36138;BME280;67787;50.074;21.904;2023-04-19T07:45:51;98962.36;;;9.38;68.52
36138;BME280;67787;50.074;21.904;2023-04-19T07:48:19;98960.99;;;9.43;68.50
36138;BME280;67787;50.074;21.904;2023-04-19T07:50:47;98962.21;;;9.48;68.58
36138;BME280;67787;50.074;21.904;2023-04-19T07:53:15;98961.85;;;9.53;68.54
36138;BME280;67787;50.074;21.904;2023-04-19T07:55:44;98963.49;;;9.58;68.66
36138;BME280;67787;50.074;21.904;2023-04-19T07:58:12;98965.87;;;9.64;68.71
36138;BME280;67787;50.074;21.904;2023-04-19T08:00:40;98968.26;;;9.71;68.63
36138;BME280;67787;50.074;21.904;2023-04-19T08:03:08;98962.05;;;9.76;68.66
36138;BME280;67787;50.074;21.904;2023-04-19T08:05:36;98961.38;;;9.80;68.74
36138;BME280;67787;50.074;21.904;2023-04-19T08:08:05;98960.90;;;9.82;68.84
36138;BME280;67787;50.074;21.904;2023-04-19T08:10:33;98963.58;;;9.90;68.79
36138;BME280;67787;50.074;21.904;2023-04-19T08:13:02;98958.85;;;9.98;68.79
36138;BME280;67787;50.074;21.904;2023-04-19T08:15:34;98956.80;;;10.07;68.80
36138;BME280;67787;50.074;21.904;2023-04-19T08:18:05;98957.45;;;10.11;68.85
36138;BME280;67787;50.074;21.904;2023-04-19T08:20:33;98957.77;;;10.11;68.78
36138;BME280;67787;50.074;21.904;2023-04-19T08:23:02;98956.34;;;10.11;68.82
36138;BME280;67787;50.074;21.904;2023-04-19T08:25:47;98956.12;;;10.12;68.80
36138;BME280;67787;50.074;21.904;2023-04-19T08:28:16;98960.31;;;10.12;68.87
36138;BME280;67787;50.074;21.904;2023-04-19T08:30:45;98963.64;;;10.11;68.75
36138;BME280;67787;50.074;21.904;2023-04-19T08:33:12;98960.54;;;10.12;68.99
36138;BME280;67787;50.074;21.904;2023-04-19T08:35:41;98962.43;;;10.18;68.81
36138;BME280;67787;50.074;21.904;2023-04-19T08:38:08;98961.59;;;10.22;69.01
36138;BME280;67787;50.074;21.904;2023-04-19T08:40:46;98962.07;;;10.25;68.88
36138;BME280;67787;50.074;21.904;2023-04-19T08:43:16;98964.70;;;10.31;68.97
36138;BME280;67787;50.074;21.904;2023-04-19T08:45:47;98965.00;;;10.36;69.01
36138;BME280;67787;50.074;21.904;2023-04-19T08:48:18;98969.21;;;10.44;68.98
36138;BME280;67787;50.074;21.904;2023-04-19T08:50:48;98970.59;;;10.52;68.71
36138;BME280;67787;50.074;21.904;2023-04-19T08:53:33;98968.71;;;10.54;68.87
36138;BME280;67787;50.074;21.904;2023-04-19T08:56:02;98968.89;;;10.56;69.00
36138;BME280;67787;50.074;21.904;2023-04-19T08:58:47;98964.75;;;10.64;68.87
36138;BME280;67787;50.074;21.904;2023-04-19T09:01:18;98960.40;;;10.75;69.17
36138;BME280;67787;50.074;21.904;2023-04-19T09:04:06;98950.50;;;10.96;69.10
36138;BME280;67787;50.074;21.904;2023-04-19T09:06:54;98954.59;;;11.17;69.08
36138;BME280;67787;50.074;21.904;2023-04-19T09:09:28;98954.68;;;11.32;69.13
36138;BME280;67787;50.074;21.904;2023-04-19T09:11:59;98952.41;;;11.52;69.06
36138;BME280;67787;50.074;21.904;2023-04-19T09:14:28;98953.20;;;11.76;69.05
36138;BME280;67787;50.074;21.904;2023-04-19T09:17:12;98950.08;;;11.95;68.99
36138;BME280;67787;50.074;21.904;2023-04-19T09:19:47;98945.21;;;12.17;69.00
36138;BME280;67787;50.074;21.904;2023-04-19T09:22:16;98943.66;;;12.40;68.99
36138;BME280;67787;50.074;21.904;2023-04-19T09:24:45;98939.11;;;12.63;69.19
36138;BME280;67787;50.074;21.904;2023-04-19T09:27:34;98939.17;;;12.86;68.96
36138;BME280;67787;50.074;21.904;2023-04-19T09:30:04;98942.51;;;12.84;68.81
36138;BME280;67787;50.074;21.904;2023-04-19T09:32:45;98944.03;;;12.70;68.41
36138;BME280;67787;50.074;21.904;2023-04-19T09:35:14;98943.08;;;12.69;68.65
36138;BME280;67787;50.074;21.904;2023-04-19T09:37:42;98942.42;;;12.81;68.83
36138;BME280;67787;50.074;21.904;2023-04-19T09:40:23;98943.46;;;12.92;68.74
36138;BME280;67787;50.074;21.904;2023-04-19T09:42:52;98941.06;;;12.91;68.80
36138;BME280;67787;50.074;21.904;2023-04-19T09:45:22;98945.06;;;12.88;68.37
36138;BME280;67787;50.074;21.904;2023-04-19T09:48:04;98944.42;;;12.81;68.49
36138;BME280;67787;50.074;21.904;2023-04-19T09:50:36;98945.80;;;12.77;68.33
36138;BME280;67787;50.074;21.904;2023-04-19T09:53:22;98939.60;;;12.79;68.63
36138;BME280;67787;50.074;21.904;2023-04-19T09:55:50;98944.80;;;12.76;68.35
36138;BME280;67787;50.074;21.904;2023-04-19T09:58:29;98943.08;;;12.67;68.32
36138;BME280;67787;50.074;21.904;2023-04-19T10:01:00;98943.10;;;12.73;68.55
36138;BME280;67787;50.074;21.904;2023-04-19T10:03:47;98944.81;;;12.93;68.50
36138;BME280;67787;50.074;21.904;2023-04-19T10:06:17;98944.89;;;13.05;68.32
36138;BME280;67787;50.074;21.904;2023-04-19T10:08:49;98946.81;;;13.07;68.25
36138;BME280;67787;50.074;21.904;2023-04-19T10:11:20;98944.21;;;13.04;68.01
36138;BME280;67787;50.074;21.904;2023-04-19T10:13:53;98939.29;;;13.02;68.13
36138;BME280;67787;50.074;21.904;2023-04-19T10:16:23;98941.70;;;12.98;68.16
36138;BME280;67787;50.074;21.904;2023-04-19T10:18:51;98943.32;;;12.83;67.99
36138;BME280;67787;50.074;21.904;2023-04-19T10:21:20;98941.22;;;12.63;68.00
36138;BME280;67787;50.074;21.904;2023-04-19T10:23:49;98939.73;;;12.44;68.01
36138;BME280;67787;50.074;21.904;2023-04-19T10:26:17;98941.09;;;12.28;67.94
36138;BME280;67787;50.074;21.904;2023-04-19T10:28:46;98942.05;;;12.14;67.90
36138;BME280;67787;50.074;21.904;2023-04-19T10:31:15;98944.45;;;11.99;67.92
36138;BME280;67787;50.074;21.904;2023-04-19T10:33:48;98945.11;;;11.84;67.86
36138;BME280;67787;50.074;21.904;2023-04-19T10:36:19;98945.44;;;11.73;67.95
36138;BME280;67787;50.074;21.904;2023-04-19T10:38:50;98940.13;;;11.71;67.97
36138;BME280;67787;50.074;21.904;2023-04-19T10:41:22;98942.10;;;11.80;67.98
36138;BME280;67787;50.074;21.904;2023-04-19T10:48:58;98942.42;;;12.11;68.20
36138;BME280;67787;50.074;21.904;2023-04-19T10:51:28;98943.33;;;12.20;68.04
36138;BME280;67787;50.074;21.904;2023-04-19T10:57:04;98944.57;;;12.16;67.95
36138;BME280;67787;50.074;21.904;2023-04-19T10:59:34;98946.95;;;12.08;67.99
36138;BME280;67787;50.074;21.904;2023-04-19T11:07:18;98958.42;;;11.71;67.97
36138;BME280;67787;50.074;21.904;2023-04-19T11:09:48;98958.89;;;11.71;68.03
36138;BME280;67787;50.074;21.904;2023-04-19T11:12:18;98959.78;;;11.74;68.11
36138;BME280;67787;50.074;21.904;2023-04-19T11:14:57;98954.08;;;11.76;68.07
36138;BME280;67787;50.074;21.904;2023-04-19T11:17:30;98952.86;;;11.89;68.15
36138;BME280;67787;50.074;21.904;2023-04-19T11:20:03;98954.10;;;12.05;68.33
36138;BME280;67787;50.074;21.904;2023-04-19T11:22:37;98951.39;;;12.22;68.24
36138;BME280;67787;50.074;21.904;2023-04-19T11:25:18;98956.89;;;12.37;68.30
36138;BME280;67787;50.074;21.904;2023-04-19T11:27:50;98953.57;;;12.52;68.24
36138;BME280;67787;50.074;21.904;2023-04-19T11:30:20;98954.48;;;12.58;68.01
36138;BME280;67787;50.074;21.904;2023-04-19T11:32:54;98958.19;;;12.56;67.87
36138;BME280;67787;50.074;21.904;2023-04-19T11:35:25;98949.70;;;12.68;68.16
36138;BME280;67787;50.074;21.904;2023-04-19T11:37:54;98952.83;;;12.91;68.22
36138;BME280;67787;50.074;21.904;2023-04-19T11:40:24;98950.13;;;13.06;68.04
36138;BME280;67787;50.074;21.904;2023-04-19T11:42:54;98953.48;;;13.19;67.74
36138;BME280;67787;50.074;21.904;2023-04-19T11:45:28;98949.25;;;13.29;67.95
36138;BME280;67787;50.074;21.904;2023-04-19T11:47:59;98951.38;;;13.29;67.31
36138;BME280;67787;50.074;21.904;2023-04-19T11:50:38;98943.27;;;13.11;67.50
36138;BME280;67787;50.074;21.904;2023-04-19T11:53:12;98945.77;;;13.03;67.62
36138;BME280;67787;50.074;21.904;2023-04-19T11:55:43;98945.27;;;13.00;67.75
36138;BME280;67787;50.074;21.904;2023-04-19T12:01:04;98944.29;;;13.01;67.93
36138;BME280;67787;50.074;21.904;2023-04-19T12:03:40;98939.09;;;13.10;68.05
36138;BME280;67787;50.074;21.904;2023-04-19T12:06:15;98939.40;;;13.21;67.90
36138;BME280;67787;50.074;21.904;2023-04-19T12:08:46;98937.02;;;13.34;67.76
36138;BME280;67787;50.074;21.904;2023-04-19T12:11:15;98937.20;;;13.54;67.79
36138;BME280;67787;50.074;21.904;2023-04-19T12:13:43;98936.41;;;13.65;67.74
36138;BME280;67787;50.074;21.904;2023-04-19T12:16:12;98936.54;;;13.78;67.87
36138;BME280;67787;50.074;21.904;2023-04-19T12:21:11;98935.17;;;14.05;67.51
36138;BME280;67787;50.074;21.904;2023-04-19T12:23:53;98931.64;;;14.11;67.52
36138;BME280;67787;50.074;21.904;2023-04-19T12:26:23;98929.55;;;14.17;67.44
36138;BME280;67787;50.074;21.904;2023-04-19T12:28:55;98931.19;;;14.28;67.43
36138;BME280;67787;50.074;21.904;2023-04-19T12:31:24;98929.97;;;14.40;67.36
36138;BME280;67787;50.074;21.904;2023-04-19T12:33:53;98931.07;;;14.59;67.52
36138;BME280;67787;50.074;21.904;2023-04-19T12:36:21;98923.63;;;14.77;67.06
36138;BME280;67787;50.074;21.904;2023-04-19T12:38:48;98916.48;;;14.84;67.39
36138;BME280;67787;50.074;21.904;2023-04-19T12:41:17;98912.70;;;14.94;67.49
36138;BME280;67787;50.074;21.904;2023-04-19T12:43:45;98912.10;;;14.99;67.45
36138;BME280;67787;50.074;21.904;2023-04-19T12:46:13;98912.80;;;15.03;67.05
36138;BME280;67787;50.074;21.904;2023-04-19T12:48:41;98914.91;;;14.99;66.76
36138;BME280;67787;50.074;21.904;2023-04-19T12:51:09;98915.86;;;14.85;66.37
36138;BME280;67787;50.074;21.904;2023-04-19T12:53:37;98918.74;;;14.71;66.63
36138;BME280;67787;50.074;21.904;2023-04-19T12:56:06;98918.36;;;14.62;66.56
36138;BME280;67787;50.074;21.904;2023-04-19T12:58:34;98919.68;;;14.61;66.58
36138;BME280;67787;50.074;21.904;2023-04-19T13:01:02;98909.97;;;14.54;66.64
36138;BME280;67787;50.074;21.904;2023-04-19T13:03:30;98916.41;;;14.51;66.50
36138;BME280;67787;50.074;21.904;2023-04-19T13:06:00;98912.02;;;14.53;66.57
36138;BME280;67787;50.074;21.904;2023-04-19T13:08:28;98915.93;;;14.69;66.62
36138;BME280;67787;50.074;21.904;2023-04-19T13:11:14;98909.33;;;14.86;66.44
36138;BME280;67787;50.074;21.904;2023-04-19T13:13:42;98908.46;;;15.00;66.51
36138;BME280;67787;50.074;21.904;2023-04-19T13:16:10;98907.68;;;15.17;66.68
36138;BME280;67787;50.074;21.904;2023-04-19T13:18:38;98915.04;;;15.23;65.86
36138;BME280;67787;50.074;21.904;2023-04-19T13:21:06;98913.59;;;15.06;65.63
36138;BME280;67787;50.074;21.904;2023-04-19T13:23:35;98913.81;;;14.84;65.99
36138;BME280;67787;50.074;21.904;2023-04-19T13:26:04;98921.48;;;14.68;65.88
36138;BME280;67787;50.074;21.904;2023-04-19T13:28:32;98926.70;;;14.52;66.25